createdAt,value
2022-08-07T00:00:26.573Z,96.65
2022-08-07T00:02:56.002Z,96.89
2022-08-07T00:05:24.135Z,96.71
2022-08-07T00:08:00.050Z,96.78
2022-08-07T00:10:30.996Z,97.44
2022-08-07T00:13:17.450Z,97.64
2022-08-07T00:15:51.890Z,97.79
2022-08-07T00:18:24.426Z,98.26
2022-08-07T00:20:53.275Z,98.74
2022-08-07T00:23:21.142Z,98.80
2022-08-07T00:25:52.501Z,98.95
2022-08-07T00:28:33.450Z,99.03
2022-08-07T00:31:04.406Z,99.22
2022-08-07T00:33:34.450Z,99.85
2022-08-07T00:36:02.835Z,99.89
2022-08-07T00:38:31.687Z,99.75
2022-08-07T00:41:02.417Z,99.45
2022-08-07T00:44:01.715Z,99.53
2022-08-07T00:46:17.970Z,99.52
2022-08-07T00:48:45.667Z,99.93
2022-08-07T00:51:18.201Z,99.94
2022-08-07T00:53:50.714Z,99.60
2022-08-07T00:56:30.277Z,99.92
2022-08-07T00:58:58.802Z,100.00
2022-08-07T01:01:26.738Z,100.00
2022-08-07T01:04:00.347Z,100.00
2022-08-07T01:06:29.522Z,100.00
2022-08-07T01:09:00.630Z,100.00
2022-08-07T01:12:09.225Z,100.00
2022-08-07T01:14:21.378Z,100.00
2022-08-07T01:16:57.113Z,100.00
2022-08-07T01:19:27.522Z,100.00
2022-08-07T01:22:03.302Z,100.00
2022-08-07T01:24:31.841Z,100.00
2022-08-07T01:27:00.526Z,100.00
2022-08-07T01:29:31.436Z,100.00
2022-08-07T01:32:05.231Z,100.00
2022-08-07T01:34:34.130Z,100.00
2022-08-07T01:37:03.878Z,100.00
2022-08-07T01:39:40.969Z,100.00
2022-08-07T01:42:38.057Z,100.00
2022-08-07T01:45:04.194Z,100.00
2022-08-07T01:48:17.797Z,100.00
2022-08-07T01:50:22.809Z,100.00
2022-08-07T01:53:01.138Z,100.00
2022-08-07T01:55:33.340Z,100.00
2022-08-07T01:58:27.126Z,100.00
2022-08-07T02:01:09.298Z,100.00
2022-08-07T02:03:50.499Z,100.00
2022-08-07T02:06:31.557Z,100.00
2022-08-07T02:09:05.774Z,100.00
2022-08-07T02:12:04.305Z,100.00
2022-08-07T02:14:40.262Z,100.00
2022-08-07T02:17:09.275Z,100.00
2022-08-07T02:20:07.652Z,100.00
2022-08-07T02:22:33.712Z,100.00
2022-08-07T02:25:07.107Z,100.00
2022-08-07T02:27:44.023Z,100.00
2022-08-07T02:30:19.356Z,100.00
2022-08-07T02:33:00.408Z,100.00
2022-08-07T02:36:30.619Z,100.00
2022-08-07T02:38:28.013Z,100.00
2022-08-07T02:41:03.756Z,100.00
2022-08-07T02:43:32.888Z,100.00
2022-08-07T02:46:03.051Z,100.00
2022-08-07T02:48:32.036Z,100.00
2022-08-07T02:51:06.672Z,100.00
2022-08-07T02:53:38.544Z,100.00
2022-08-07T02:56:21.145Z,100.00
2022-08-07T02:58:54.033Z,100.00
2022-08-07T03:01:35.443Z,100.00
2022-08-07T03:04:07.569Z,100.00
2022-08-07T03:06:37.734Z,100.00
2022-08-07T03:09:11.447Z,100.00
2022-08-07T03:11:52.258Z,100.00
2022-08-07T03:14:27.701Z,100.00
2022-08-07T03:16:56.758Z,100.00
2022-08-07T03:19:29.061Z,100.00
2022-08-07T03:22:06.956Z,100.00
2022-08-07T03:24:36.757Z,100.00
2022-08-07T03:27:09.317Z,100.00
2022-08-07T03:29:46.249Z,100.00
2022-08-07T03:32:23.459Z,100.00
2022-08-07T03:35:16.531Z,100.00
2022-08-07T03:37:46.123Z,100.00
2022-08-07T03:40:22.158Z,100.00
2022-08-07T03:42:52.230Z,100.00
2022-08-07T03:45:30.755Z,100.00
2022-08-07T03:48:00.613Z,100.00
2022-08-07T03:50:29.959Z,100.00
2022-08-07T03:52:59.935Z,100.00
2022-08-07T03:55:46.108Z,100.00
2022-08-07T03:59:05.127Z,100.00
2022-08-07T04:01:11.324Z,100.00
2022-08-07T04:03:49.688Z,100.00
2022-08-07T04:06:37.926Z,100.00
2022-08-07T04:09:08.338Z,100.00
2022-08-07T04:12:23.653Z,100.00
2022-08-07T04:14:37.661Z,100.00
2022-08-07T04:17:21.212Z,100.00
2022-08-07T04:19:51.873Z,100.00
2022-08-07T04:22:29.134Z,100.00
2022-08-07T04:24:58.444Z,100.00
2022-08-07T04:27:26.844Z,100.00
2022-08-07T04:30:02.337Z,100.00
2022-08-07T04:32:35.122Z,100.00
2022-08-07T04:35:05.420Z,100.00
2022-08-07T04:37:52.726Z,100.00
2022-08-07T04:40:22.871Z,100.00
2022-08-07T04:43:02.134Z,100.00
2022-08-07T04:45:57.217Z,100.00
2022-08-07T04:48:35.458Z,100.00
2022-08-07T04:51:09.018Z,100.00
2022-08-07T04:54:01.486Z,100.00
2022-08-07T04:58:16.756Z,100.00
2022-08-07T05:00:10.702Z,100.00
2022-08-07T05:02:27.974Z,99.97
2022-08-07T05:05:11.544Z,98.18
2022-08-07T05:07:58.101Z,94.79
2022-08-07T05:10:32.000Z,90.67
2022-08-07T05:14:44.784Z,89.88
2022-08-07T05:15:54.907Z,89.05
2022-08-07T05:18:29.585Z,86.30
2022-08-07T05:21:00.327Z,83.87
2022-08-07T05:23:35.639Z,81.17
2022-08-07T05:26:13.544Z,78.10
2022-08-07T05:28:50.351Z,73.65
2022-08-07T05:31:21.562Z,69.34
2022-08-07T05:34:04.549Z,65.80
2022-08-07T05:36:35.398Z,64.90
2022-08-07T05:40:05.819Z,65.71
2022-08-07T05:42:01.096Z,62.10
2022-08-07T05:44:34.628Z,58.73
2022-08-07T05:47:18.315Z,58.33
2022-08-07T05:49:49.154Z,56.02
2022-08-07T05:52:20.260Z,54.00
2022-08-07T05:54:55.622Z,52.89
2022-08-07T05:57:26.561Z,53.60
2022-08-07T06:00:00.229Z,53.71
2022-08-07T06:02:32.611Z,54.22
2022-08-07T06:05:06.143Z,56.24
2022-08-07T06:08:13.317Z,55.20
2022-08-07T06:10:24.474Z,52.68
2022-08-07T06:12:52.193Z,51.96
2022-08-07T06:15:21.044Z,51.47
2022-08-07T06:17:53.449Z,50.42
2022-08-07T06:20:31.895Z,50.90
2022-08-07T06:23:46.034Z,49.57
2022-08-07T06:26:01.373Z,48.96
2022-08-07T06:28:29.773Z,49.87
2022-08-07T06:30:58.380Z,49.57
2022-08-07T06:33:26.714Z,48.07
2022-08-07T06:36:06.837Z,48.30
2022-08-07T06:38:58.892Z,48.04
2022-08-07T06:42:01.138Z,49.49
2022-08-07T06:44:24.119Z,48.51
2022-08-07T06:46:53.758Z,46.82
2022-08-07T06:49:52.203Z,47.41
2022-08-07T06:52:35.663Z,47.83
2022-08-07T06:55:33.671Z,48.38
2022-08-07T06:57:57.169Z,49.11
2022-08-07T07:00:28.302Z,47.56
2022-08-07T07:03:01.125Z,48.89
2022-08-07T07:06:04.110Z,48.09
2022-08-07T07:08:26.531Z,47.60
2022-08-07T07:10:57.073Z,46.87
2022-08-07T07:13:43.562Z,45.61
2022-08-07T07:16:23.015Z,44.54
2022-08-07T07:19:00.426Z,45.63
2022-08-07T07:22:04.900Z,44.83
2022-08-07T07:24:32.968Z,44.95
2022-08-07T07:27:04.396Z,45.08
2022-08-07T07:29:56.679Z,43.58
2022-08-07T07:32:26.433Z,45.72
2022-08-07T07:34:57.861Z,44.37
2022-08-07T07:37:47.517Z,44.92
2022-08-07T07:40:26.239Z,46.78
2022-08-07T07:42:56.458Z,45.18
2022-08-07T07:46:53.833Z,43.21
2022-08-07T07:48:24.316Z,44.14
2022-08-07T07:51:07.827Z,44.19
2022-08-07T07:53:51.390Z,42.94
2022-08-07T07:56:30.491Z,44.06
2022-08-07T07:59:01.626Z,45.10
2022-08-07T08:02:04.061Z,45.87
2022-08-07T08:04:25.851Z,45.56
2022-08-07T08:06:56.163Z,44.89
2022-08-07T08:09:29.211Z,45.69
2022-08-07T08:12:05.018Z,45.40
2022-08-07T08:14:34.368Z,46.03
2022-08-07T08:17:56.447Z,45.09
2022-08-07T08:20:17.627Z,44.57
2022-08-07T08:23:03.199Z,44.21
2022-08-07T08:25:54.510Z,47.02
2022-08-07T08:28:37.986Z,46.46
2022-08-07T08:31:15.755Z,46.97
2022-08-07T08:33:49.248Z,47.29
2022-08-07T08:36:25.593Z,48.48
2022-08-07T08:39:00.014Z,47.32
2022-08-07T08:41:57.503Z,48.10
2022-08-07T08:44:37.271Z,49.29
2022-08-07T08:47:22.662Z,48.88
2022-08-07T08:50:05.561Z,50.03
2022-08-07T08:52:40.915Z,50.67
2022-08-07T08:55:55.018Z,51.29
2022-08-07T08:58:28.918Z,50.95
2022-08-07T09:01:16.125Z,51.57
2022-08-07T09:03:56.997Z,50.52
2022-08-07T09:06:42.835Z,49.92
2022-08-07T09:09:33.183Z,50.65
2022-08-07T09:12:31.223Z,51.05
2022-08-07T09:16:25.298Z,50.13
2022-08-07T09:18:22.088Z,49.01
2022-08-07T09:21:33.800Z,49.45
2022-08-07T09:24:54.956Z,48.97
2022-08-07T09:27:12.056Z,48.81
2022-08-07T09:30:03.182Z,49.30
2022-08-07T09:32:56.777Z,49.82
2022-08-07T09:36:02.988Z,49.99
2022-08-07T09:38:32.435Z,49.58
2022-08-07T09:41:22.382Z,49.14
2022-08-07T09:44:06.150Z,49.31
2022-08-07T09:47:51.887Z,49.41
2022-08-07T09:50:01.255Z,49.87
2022-08-07T09:52:43.882Z,49.74
2022-08-07T09:55:37.007Z,49.85
2022-08-07T09:58:48.803Z,50.73
2022-08-07T10:01:51.480Z,51.18
2022-08-07T10:04:38.230Z,52.17
2022-08-07T10:07:39.754Z,51.98
2022-08-07T10:10:25.049Z,51.57
2022-08-07T10:13:55.394Z,51.38
2022-08-07T10:16:40.225Z,51.98
2022-08-07T10:19:30.754Z,52.25
2022-08-07T10:22:24.991Z,51.36
2022-08-07T10:25:22.586Z,51.50
2022-08-07T10:28:04.398Z,51.11
2022-08-07T10:30:42.813Z,50.64
2022-08-07T10:34:15.133Z,49.88
2022-08-07T10:36:36.031Z,50.26
2022-08-07T10:39:09.143Z,49.58
2022-08-07T10:41:52.393Z,49.38
2022-08-07T10:44:38.069Z,49.53
2022-08-07T10:47:27.151Z,49.60
2022-08-07T10:50:15.108Z,49.13
2022-08-07T10:52:53.314Z,50.20
2022-08-07T10:55:36.952Z,49.50
2022-08-07T10:58:33.343Z,49.69
2022-08-07T11:01:22.280Z,50.32
2022-08-07T11:04:11.035Z,50.72
2022-08-07T11:06:55.534Z,50.30
2022-08-07T11:10:08.774Z,50.48
2022-08-07T11:12:31.729Z,51.04
2022-08-07T11:15:09.683Z,51.88
2022-08-07T11:17:49.554Z,50.97
2022-08-07T11:20:22.387Z,50.51
2022-08-07T11:23:01.378Z,51.00
2022-08-07T11:25:36.276Z,50.13
2022-08-07T11:28:16.652Z,50.54
2022-08-07T11:30:55.713Z,51.10
2022-08-07T11:33:58.610Z,50.79
2022-08-07T11:36:34.768Z,51.81
2022-08-07T11:39:14.494Z,51.07
2022-08-07T11:42:01.824Z,50.93
2022-08-07T11:44:40.520Z,50.09
2022-08-07T11:47:55.882Z,49.92
2022-08-07T11:50:44.240Z,49.83
2022-08-07T11:53:56.990Z,50.11
2022-08-07T11:56:37.440Z,50.74
2022-08-07T12:00:07.681Z,50.13
2022-08-07T12:02:30.432Z,50.52
2022-08-07T12:05:15.353Z,50.62
2022-08-07T12:08:04.009Z,50.79
2022-08-07T12:10:42.019Z,51.23
2022-08-07T12:13:18.621Z,50.90
2022-08-07T12:16:08.893Z,50.03
2022-08-07T12:18:45.182Z,49.42
2022-08-07T12:22:36.323Z,49.96
2022-08-07T12:24:37.898Z,49.69
2022-08-07T12:27:16.327Z,49.03
2022-08-07T12:29:52.573Z,48.54
2022-08-07T12:32:25.150Z,49.55
2022-08-07T12:34:56.142Z,49.41
2022-08-07T12:37:28.602Z,49.77
2022-08-07T12:40:43.905Z,48.63
2022-08-07T12:43:09.915Z,48.51
2022-08-07T12:45:50.258Z,49.68
2022-08-07T12:48:51.776Z,49.04
2022-08-07T12:51:20.612Z,48.09
2022-08-07T12:54:23.774Z,48.37
2022-08-07T12:56:51.311Z,48.47
2022-08-07T12:59:33.123Z,47.68
2022-08-07T13:02:13.834Z,48.09
2022-08-07T13:05:01.996Z,48.39
2022-08-07T13:08:12.555Z,49.61
2022-08-07T13:10:54.800Z,48.20
2022-08-07T13:13:49.114Z,47.77
2022-08-07T13:16:25.624Z,48.48
2022-08-07T13:19:02.012Z,47.56
2022-08-07T13:21:50.122Z,48.63
2022-08-07T13:24:25.834Z,48.14
2022-08-07T13:27:05.609Z,48.18
2022-08-07T13:29:42.292Z,47.40
2022-08-07T13:32:32.309Z,48.05
2022-08-07T13:35:08.782Z,48.53
2022-08-07T13:37:55.477Z,47.39
2022-08-07T13:40:36.340Z,48.07
2022-08-07T13:43:16.154Z,47.13
2022-08-07T13:46:11.416Z,47.02
2022-08-07T13:48:39.038Z,46.76
2022-08-07T13:51:27.139Z,47.21
2022-08-07T13:54:02.046Z,47.35
2022-08-07T13:56:35.655Z,46.92
2022-08-07T13:59:14.020Z,47.25
2022-08-07T14:01:51.487Z,47.84
2022-08-07T14:04:36.106Z,48.57
2022-08-07T14:07:09.302Z,48.53
2022-08-07T14:10:02.888Z,48.72
2022-08-07T14:12:41.818Z,48.50
2022-08-07T14:15:32.147Z,48.21
2022-08-07T14:18:27.444Z,48.04
2022-08-07T14:21:00.431Z,48.17
2022-08-07T14:24:01.177Z,48.05
2022-08-07T14:26:31.788Z,46.69
2022-08-07T14:29:10.538Z,46.98
2022-08-07T14:31:57.972Z,47.55
2022-08-07T14:34:30.621Z,46.95
2022-08-07T14:37:01.967Z,47.43
2022-08-07T14:40:15.517Z,46.50
2022-08-07T14:42:26.002Z,46.65
2022-08-07T14:47:50.448Z,46.99
2022-08-07T14:50:22.588Z,47.39
2022-08-07T14:52:53.851Z,47.91
2022-08-07T14:55:22.265Z,47.28
2022-08-07T15:00:43.541Z,47.47
2022-08-07T15:03:18.641Z,47.68
2022-08-07T15:05:54.420Z,48.11
2022-08-07T15:08:34.889Z,47.25
2022-08-07T15:11:53.653Z,47.44
2022-08-07T15:14:10.828Z,48.59
2022-08-07T15:20:30.385Z,47.76
2022-08-07T15:22:31.416Z,47.17
2022-08-07T15:28:14.149Z,47.88
2022-08-07T15:33:42.725Z,47.51
2022-08-07T15:36:13.471Z,47.71
2022-08-07T15:47:16.807Z,48.37
2022-08-07T15:50:03.936Z,48.18
2022-08-07T15:52:38.607Z,48.07
2022-08-07T15:55:11.437Z,48.56
2022-08-07T15:57:47.785Z,48.61
2022-08-07T16:00:31.045Z,48.54
2022-08-07T16:03:05.219Z,48.43
2022-08-07T16:05:34.391Z,48.52
2022-08-07T16:08:33.218Z,48.63
2022-08-07T16:11:03.429Z,49.01
2022-08-07T16:13:59.580Z,49.67
2022-08-07T16:17:14.902Z,49.07
2022-08-07T16:20:04.011Z,49.38
2022-08-07T16:22:55.464Z,49.91
2022-08-07T16:25:55.249Z,49.57
2022-08-07T16:30:06.017Z,49.40
2022-08-07T16:31:58.547Z,50.53
2022-08-07T16:34:39.527Z,50.46
2022-08-07T16:38:04.828Z,50.14
2022-08-07T16:41:11.252Z,49.92
2022-08-07T16:44:03.860Z,49.96
2022-08-07T16:47:16.597Z,50.23
2022-08-07T16:50:35.507Z,50.75
2022-08-07T16:54:01.470Z,50.97
2022-08-07T16:56:18.920Z,51.40
2022-08-07T16:59:10.897Z,51.29
2022-08-07T17:01:52.299Z,51.35
2022-08-07T17:04:35.343Z,51.26
2022-08-07T17:07:13.625Z,51.14
2022-08-07T17:10:06.284Z,51.21
2022-08-07T17:12:46.195Z,51.34
2022-08-07T17:15:21.834Z,51.60
2022-08-07T17:18:03.480Z,51.82
2022-08-07T17:20:37.496Z,52.30
2022-08-07T17:23:17.574Z,52.75
2022-08-07T17:25:54.791Z,53.19
2022-08-07T17:28:32.066Z,53.90
2022-08-07T17:31:16.465Z,53.79
2022-08-07T17:34:19.855Z,53.45
2022-08-07T17:36:58.051Z,53.93
2022-08-07T17:39:58.351Z,53.42
2022-08-07T17:42:59.502Z,53.69
2022-08-07T17:45:29.064Z,53.53
2022-08-07T17:48:06.659Z,54.25
2022-08-07T17:50:52.365Z,54.44
2022-08-07T17:54:00.609Z,54.52
2022-08-07T17:56:28.813Z,54.97
2022-08-07T17:59:04.562Z,55.30
2022-08-07T18:01:38.000Z,55.61
2022-08-07T18:04:16.952Z,55.59
2022-08-07T18:06:57.888Z,56.85
2022-08-07T18:10:04.279Z,57.59
2022-08-07T18:12:36.695Z,57.94
2022-08-07T18:15:12.403Z,59.03
2022-08-07T18:18:47.544Z,59.37
2022-08-07T18:21:12.558Z,60.57
2022-08-07T18:23:58.580Z,60.18
2022-08-07T18:26:40.865Z,60.82
2022-08-07T18:30:06.533Z,62.13
2022-08-07T18:32:29.263Z,63.06
2022-08-07T18:35:12.639Z,63.23
2022-08-07T18:38:56.829Z,63.52
2022-08-07T18:41:09.185Z,64.22
2022-08-07T18:43:57.261Z,62.74
2022-08-07T18:46:33.541Z,63.64
2022-08-07T18:50:19.035Z,64.11
2022-08-07T18:52:25.676Z,63.59
2022-08-07T18:55:40.801Z,63.71
2022-08-07T18:58:14.344Z,63.93
2022-08-07T19:00:55.136Z,64.88
2022-08-07T19:03:37.626Z,65.86
2022-08-07T19:06:16.297Z,66.17
2022-08-07T19:09:09.589Z,66.75
2022-08-07T19:12:12.162Z,67.78
2022-08-07T19:14:51.008Z,68.77
2022-08-07T19:17:59.401Z,69.51
2022-08-07T19:20:30.003Z,70.30
2022-08-07T19:23:18.741Z,70.71
2022-08-07T19:26:23.776Z,72.01
2022-08-07T19:30:53.374Z,71.20
2022-08-07T19:32:05.371Z,71.68
2022-08-07T19:34:32.419Z,73.32
2022-08-07T19:37:16.915Z,73.19
2022-08-07T19:39:57.025Z,73.13
2022-08-07T19:42:31.451Z,72.66
2022-08-07T19:45:08.645Z,72.99
2022-08-07T19:47:42.229Z,73.85
2022-08-07T19:50:44.001Z,73.36
2022-08-07T19:53:00.978Z,73.65
2022-08-07T19:55:57.575Z,73.52
2022-08-07T19:58:28.312Z,73.29
2022-08-07T20:01:01.746Z,74.41
2022-08-07T20:03:34.869Z,75.24
2022-08-07T20:06:04.890Z,74.75
2022-08-07T20:08:34.602Z,75.37
2022-08-07T20:11:09.737Z,75.17
2022-08-07T20:13:44.344Z,75.02
2022-08-07T20:16:36.118Z,73.30
2022-08-07T20:19:10.378Z,73.57
2022-08-07T20:21:47.356Z,73.41
2022-08-07T20:24:20.593Z,74.04
2022-08-07T20:26:52.120Z,73.64
2022-08-07T20:29:49.129Z,74.88
2022-08-07T20:32:22.688Z,75.80
2022-08-07T20:34:55.300Z,76.14
2022-08-07T20:37:26.262Z,76.54
2022-08-07T20:40:04.290Z,76.77
2022-08-07T20:42:34.537Z,76.57
2022-08-07T20:46:24.250Z,76.14
2022-08-07T20:47:58.535Z,76.10
2022-08-07T20:50:29.152Z,76.90
2022-08-07T20:52:59.621Z,77.77
2022-08-07T20:55:28.505Z,78.02
2022-08-07T20:58:04.029Z,78.51
2022-08-07T21:00:44.406Z,77.31
2022-08-07T21:03:18.955Z,76.87
2022-08-07T21:05:56.462Z,76.36
2022-08-07T21:08:36.676Z,76.47
2022-08-07T21:11:11.977Z,76.35
2022-08-07T21:13:57.226Z,78.17
2022-08-07T21:16:37.747Z,77.23
2022-08-07T21:19:32.035Z,76.91
2022-08-07T21:22:19.079Z,76.94
2022-08-07T21:25:04.668Z,76.79
2022-08-07T21:27:53.840Z,76.99
2022-08-07T21:30:29.951Z,77.66
2022-08-07T21:33:08.050Z,78.95
2022-08-07T21:36:06.732Z,78.78
2022-08-07T21:38:38.568Z,78.14
2022-08-07T21:41:20.829Z,77.35
2022-08-07T21:43:56.172Z,77.03
2022-08-07T21:46:31.638Z,77.35
2022-08-07T21:49:15.125Z,77.60
2022-08-07T21:51:55.722Z,77.29
2022-08-07T21:54:36.226Z,77.78
2022-08-07T21:57:31.332Z,78.60
2022-08-07T22:00:22.470Z,76.38
2022-08-07T22:02:57.928Z,78.40
2022-08-07T22:05:45.161Z,79.08
2022-08-07T22:08:19.902Z,79.90
2022-08-07T22:10:50.671Z,80.26
2022-08-07T22:13:24.479Z,80.10
2022-08-07T22:16:45.609Z,80.68
2022-08-07T22:19:07.662Z,81.20
2022-08-07T22:22:01.755Z,81.15
2022-08-07T22:24:37.474Z,79.35
2022-08-07T22:27:12.952Z,80.47
2022-08-07T22:29:50.216Z,79.67
2022-08-07T22:32:24.920Z,79.38
2022-08-07T22:34:55.690Z,78.24
2022-08-07T22:38:03.921Z,77.71
2022-08-07T22:40:27.922Z,77.82
2022-08-07T22:43:02.815Z,78.09
2022-08-07T22:46:21.765Z,78.99
2022-08-07T22:49:01.330Z,79.38
2022-08-07T22:51:49.006Z,80.63
2022-08-07T22:54:52.636Z,81.34
2022-08-07T22:57:46.132Z,82.16
2022-08-07T23:00:21.518Z,82.70
2022-08-07T23:03:29.913Z,82.94
2022-08-07T23:06:31.546Z,82.75
2022-08-07T23:10:04.475Z,83.33
2022-08-07T23:12:32.525Z,83.89
2022-08-07T23:15:11.836Z,83.92
2022-08-07T23:18:10.371Z,83.55
2022-08-07T23:20:54.464Z,83.42
2022-08-07T23:24:05.640Z,84.02
2022-08-07T23:26:54.816Z,84.85
2022-08-07T23:30:35.938Z,84.78
2022-08-07T23:34:20.635Z,85.68
2022-08-07T23:35:40.319Z,86.09
2022-08-07T23:38:36.791Z,86.39
2022-08-07T23:41:20.763Z,86.70
2022-08-07T23:44:24.693Z,87.65
2022-08-07T23:47:17.884Z,87.57
2022-08-07T23:50:08.104Z,88.25
2022-08-07T23:53:00.784Z,88.74
2022-08-07T23:55:53.573Z,88.52
2022-08-07T23:58:31.316Z,88.50
